Airfield :
LOGIN :

Register | Disclaimer

   EN    FR    IT 

 










Legend :    VFR   Marginal VFR   IFR   Intensive IFR   Very Intensive IFR
Visi :
Ceiling :
>= 8 km
>= 3000ft
5 to 8 km
1000 to 3000 ft
1500m to 5 km
500 to 1000 ft
800 to 1500m
200 to 500 ft
< 800m
< 200 ft
Symbols :   Thunderstorms  Fog  Heavy snow  Heavy precipitations  Wind > 20 kt
SIGMETs :     Misc.  Thunderstorms  Icing  Turbulence  Mountain Waves  Volcanic Ashes







- Airport Elevation : 989 ft
- IATA code : TRN


LIMF - Torino Caselle

CURRENT METAR :
  • 192150Z 03002KT CAVOK 10/03 Q1014

EXPIRED METARs :
  • 192120Z VRB02KT CAVOK 12/03 Q1014
  • 192050Z 27007KT CAVOK 13/03 Q1014
  • 192020Z 32005KT 290V360 CAVOK 13/03 Q1014
  • 191950Z 29007KT CAVOK 14/03 Q1013
  • 191920Z 30006KT CAVOK 15/04 Q1013

TAF TAF LIMF
Valid from the 19 at 18:00 until the 20 at 18:00 UTC


191700Z 1918/2018 27008KT 9999 SCT090
No reported NOTAMs for that airfield.
2 SIGMETs reported for the Milano FIR (LIMM) :
 
Severe turbulence
LIMM SIGMET 12 VALID 192000/200000 LIMM
LIMM MILANO FIR SEV TURB FCST WI N4553 E00741 - N4333 E00816 - N4309 E00945 - N4346 E01124 - N4641 E01027 - N4626 E00821 - N4557 E00740 - N4553 E00741 FL240/390 MOV E NC=
Embedded thunderstorms
LIMM SIGMET 11 VALID 192000/192200 LIMM
LIMM MILANO FIR EMBD TS OBS WI N4310 E00944 - N4441 E00931 - N4344 E01115 - N4311 E00948 - N4310 E00944 TOP FL400 MOV SE NC=



MET'MAP, your aeronautical weather chart ! - Copyright ORBIFLY December 2007 - Disclaimer

ORBIFLY MET'MAP TEAM :

Programming & Development : Alexandra Zaïnal
Concept & Development : Baudouin d'Aumeries
Co-Development & Prog : Marc-Olivier Méhu
Technical & hardware support : Manuel Goepfert

Contact : metmap@orbifly.com




SOURCES & CREDITS :

   NOAA